WetterOnline ( http://www.wetteronline.de )

Wetter aktuell Heiningen

Aktuelles Wetter: Braunschweig/Flughafen (88m)

6-stündlich | Neueste Meldungen
Ortszeit Temperatur Wetter
Sa, 23.02. 13:00 4.5° C leicht bewölkt
Sa, 23.02. 7:00 -2.3° C -
Sa, 23.02. 1:00 -0.5° C wolkig
Fr, 22.02. 19:00 1.6° C fast wolkenlos
Fr, 22.02. 13:00 3.6° C bedeckt
Fr, 22.02. 7:00 7.8° C bewölkt
Fr, 22.02. 1:00 8.8° C Sprühregen
Do, 21.02. 19:00 9.3° C Sprühregen
Ortszeit Temperatur Wetter
Sa, 23.02. 15:20 6° C -
Sa, 23.02. 15:00 5.4° C wolkig
Sa, 23.02. 14:50 5.4° C wolkig
Sa, 23.02. 14:40 5.4° C wolkig
Sa, 23.02. 14:30 5.9° C bewölkt
Sa, 23.02. 14:20 5.9° C bewölkt
Sa, 23.02. 14:00 5.3° C leicht bewölkt
Sa, 23.02. 13:30 4.7° C wolkig
Sa, 23.02. 13:00 4.5° C leicht bewölkt
Sa, 23.02. 12:30 4.2° C wolkig
Sa, 23.02. 12:00 2.8° C leicht bewölkt
Ortszeit Relative Feuchte Sichtweite
Sa, 23.02. 13:00 55% 25 km
Sa, 23.02. 7:00 90% 7 km
Sa, 23.02. 1:00 88% 15 km
Fr, 22.02. 19:00 87% 17 km
Fr, 22.02. 13:00 84% 35 km
Fr, 22.02. 7:00 92% 9 km
Fr, 22.02. 1:00 95% 3.0 km
Do, 21.02. 19:00 90% 4.8 km
Ortszeit Relative Feuchte Sichtweite
Sa, 23.02. 15:20 49% >10 km
Sa, 23.02. 15:00 57% 30 km
Sa, 23.02. 14:50 57% -
Sa, 23.02. 14:40 55% -
Sa, 23.02. 14:30 52% 30 km
Sa, 23.02. 14:20 52% -
Sa, 23.02. 14:00 53% 25 km
Sa, 23.02. 13:30 54% 23 km
Sa, 23.02. 13:00 55% 25 km
Sa, 23.02. 12:30 60% 24 km
Sa, 23.02. 12:00 63% 21 km
Ortszeit Niederschlagsmenge Niederschlagsart
Sa, 23.02. 13:00 0.0 l/m2 in 6 Std. -
Sa, 23.02. 7:00 0.0 l/m2 in 12 Std. -
Sa, 23.02. 1:00 0.0 l/m2 in 6 Std. -
Fr, 22.02. 19:00 0.1 l/m2 in 12 Std. -
Fr, 22.02. 13:00 0.1 l/m2 in 6 Std. Regen
Fr, 22.02. 7:00 0.5 l/m2 in 12 Std. Regen
Fr, 22.02. 1:00 0.5 l/m2 in 6 Std. Regen
Do, 21.02. 19:00 0.1 l/m2 in 12 Std. Regen
Ortszeit Niederschlagsmenge Niederschlagsart
Sa, 23.02. 15:20 keine Meldung -
Sa, 23.02. 15:00 0.0 l/m2 in 1 Std. -
Sa, 23.02. 14:50 keine Meldung -
Sa, 23.02. 14:40 keine Meldung -
Sa, 23.02. 14:30 0.0 l/m2 in 1 Std. -
Sa, 23.02. 14:20 keine Meldung -
Sa, 23.02. 14:00 0.0 l/m2 in 1 Std. -
Sa, 23.02. 13:30 0.0 l/m2 in 1 Std. -
Sa, 23.02. 13:00 0.0 l/m2 in 1 Std. -
Sa, 23.02. 12:30 0.0 l/m2 in 1 Std. -
Sa, 23.02. 12:00 0.0 l/m2 in 1 Std. -
Ortszeit Stärke Spitze Richtung
km/h Bft. km/h Grad Sektor
Sa, 23.02. 13:00 9 2 24 100° O
Sa, 23.02. 7:00 4 1 25 80° O
Sa, 23.02. 1:00 7 2 14 90° O
Fr, 22.02. 19:00 7 2 29 90° O
Fr, 22.02. 13:00 19 3 35 80° O
Fr, 22.02. 7:00 11 2 32 350° N
Fr, 22.02. 1:00 18 3 36 290° W
Do, 21.02. 19:00 20 4 43 270° W
Ortszeit Stärke Spitze Richtung
km/h Bft. km/h Grad Sektor
Sa, 23.02. 15:20 11 2 - 160° S
Sa, 23.02. 15:00 13 3 19 150° SO
Sa, 23.02. 14:50 13 3 - 150° SO
Sa, 23.02. 14:40 11 2 - 140° SO
Sa, 23.02. 14:30 11 2 18 110° O
Sa, 23.02. 14:20 11 2 - 110° O
Sa, 23.02. 14:00 9 2 19 100° O
Sa, 23.02. 13:30 13 3 19 90° O
Sa, 23.02. 13:00 9 2 15 100° O
Sa, 23.02. 12:30 7 2 14 150° SO
Sa, 23.02. 12:00 11 2 18 140° SO
Ortszeit Untergrenze Bedeckung Gattung
total tief tief mittel hoch
Sa, 23.02. 13:00 8700 m 7/8 0/8 - - -
Sa, 23.02. 7:00 - - - - - -
Sa, 23.02. 1:00 10500 m 8/8 0/8 - - -
Fr, 22.02. 19:00 12000 m 1/8 0/8 - - -
Fr, 22.02. 13:00 330 m 8/8 8/8 - - -
Fr, 22.02. 7:00 270 m 7/8 7/8 - - -
Fr, 22.02. 1:00 150 m 8/8 8/8 - - -
Do, 21.02. 19:00 270 m 8/8 8/8 - - -
Ortszeit Bedeckungsgrad in Achtel und Wolkenuntergrenze
Sa, 23.02. 15:20 keine Wolken(unter 1500 m)
Sa, 23.02. 15:00 2(6600m) 8(8100m) 8(9000m)
Sa, 23.02. 14:50 2(6600m) 8(8100m) 8(9000m)
Sa, 23.02. 14:40 1(6000m) 8(7800m) 8(9000m)
Sa, 23.02. 14:30 7(6000m) 7(6600m) 8(7500m)
Sa, 23.02. 14:20 7(6000m) 7(6600m) 8(7500m)
Sa, 23.02. 14:00 4(7200m) 7(8400m) 8(9000m)
Sa, 23.02. 13:30 8(9000m) 8(9000m)
Sa, 23.02. 13:00 5(8700m) 6(9000m) 7(10500m)
Sa, 23.02. 12:30 4(9000m) 6(10500m) 8(10500m)
Sa, 23.02. 12:00 1(9000m) 6(10500m) 8(10500m)
Ortszeit Luftdruck NN (hPa) Tendenz (hPa in 3 Std.)
Sa, 23.02. 13:00 1042 - 0,7
Sa, 23.02. 7:00 1043 + 0,7
Sa, 23.02. 1:00 1044 + 1,2
Fr, 22.02. 19:00 1042 + 1,4
Fr, 22.02. 13:00 1039 + 3,2
Fr, 22.02. 7:00 1032 + 2,4
Fr, 22.02. 1:00 1028 + 1,2
Do, 21.02. 19:00 1026 + 1,0
Ortszeit Luftdruck NN (hPa) Tendenz (hPa in 3 Std.)
Sa, 23.02. 15:20 1040 keine Meldung
Sa, 23.02. 15:00 1041 - 1,5
Sa, 23.02. 14:50 1041 keine Meldung
Sa, 23.02. 14:40 1041 keine Meldung
Sa, 23.02. 14:30 1042 - 1,2
Sa, 23.02. 14:20 1042 keine Meldung
Sa, 23.02. 14:00 1042 - 0,8
Sa, 23.02. 13:30 1042 - 0,8
Sa, 23.02. 13:00 1042 - 0,7
Sa, 23.02. 12:30 1043 - 0,4
Sa, 23.02. 12:00 1043 - 0,7
Ortszeit Schneehöhe (cm)
Sa, 23.02. 13:00 0
Sa, 23.02. 7:00 0
Sa, 23.02. 1:00 0
Fr, 22.02. 19:00 0
Fr, 22.02. 13:00 0
Fr, 22.02. 7:00 0
Fr, 22.02. 1:00 0
Do, 21.02. 19:00 0
Ortszeit Schneehöhe (cm)
Sa, 23.02. 15:20 -
Sa, 23.02. 15:00 0
Sa, 23.02. 14:50 0
Sa, 23.02. 14:40 0
Sa, 23.02. 14:30 0
Sa, 23.02. 14:20 0
Sa, 23.02. 14:00 0
Sa, 23.02. 13:30 0
Sa, 23.02. 13:00 0
Sa, 23.02. 12:30 0
Sa, 23.02. 12:00 0
Link zu dieser Seite / Seite empfehlen

Das Wetter in ...